createdAt,value
2019-02-22T00:02:42.943Z,97142.16
2019-02-22T00:05:31.401Z,97147.05
2019-02-22T00:08:19.559Z,97146.32
2019-02-22T00:11:07.593Z,97145.02
2019-02-22T00:13:55.791Z,97143.69
2019-02-22T00:16:43.929Z,97150.95
2019-02-22T00:19:31.687Z,97138.74
2019-02-22T00:22:19.513Z,97142.31
2019-02-22T00:25:07.749Z,97139.92
2019-02-22T00:27:55.482Z,97141.20
2019-02-22T00:30:43.719Z,97139.94
2019-02-22T00:33:31.717Z,97136.70
2019-02-22T00:36:20.074Z,97142.72
2019-02-22T00:39:08.263Z,97144.84
2019-02-22T00:41:56.633Z,97142.63
2019-02-22T00:44:44.434Z,97148.26
2019-02-22T00:47:31.913Z,97148.00
2019-02-22T00:50:20.160Z,97152.86
2019-02-22T00:53:08.170Z,97158.20
2019-02-22T00:55:56.142Z,97161.52
2019-02-22T00:58:44.145Z,97158.58
2019-02-22T01:01:31.690Z,97159.70
2019-02-22T01:04:20.102Z,97167.70
2019-02-22T01:07:08.375Z,97157.97
2019-02-22T01:09:56.472Z,97162.69
2019-02-22T01:12:44.546Z,97173.56
2019-02-22T01:15:32.420Z,97182.64
2019-02-22T01:18:20.542Z,97180.83
2019-02-22T01:21:08.499Z,97181.34
2019-02-22T01:23:56.403Z,97182.98
2019-02-22T01:26:44.248Z,97192.41
2019-02-22T01:29:31.835Z,97189.98
2019-02-22T01:32:19.624Z,97195.87
2019-02-22T01:35:07.782Z,97200.48
2019-02-22T01:37:55.871Z,97201.56
2019-02-22T01:40:44.265Z,97195.41
2019-02-22T01:43:33.463Z,97196.80
2019-02-22T01:46:21.541Z,97199.50
2019-02-22T01:49:09.814Z,97195.20
2019-02-22T01:51:57.734Z,97197.17
2019-02-22T01:54:45.332Z,97197.47
2019-02-22T01:57:33.233Z,97192.33
2019-02-22T02:00:21.344Z,97186.98
2019-02-22T02:03:09.490Z,97195.02
2019-02-22T02:05:57.546Z,97202.88
2019-02-22T02:08:45.852Z,97210.45
2019-02-22T02:11:34.147Z,97206.45
2019-02-22T02:14:22.139Z,97207.74
2019-02-22T02:17:10.363Z,97209.71
2019-02-22T02:19:58.545Z,97210.77
2019-02-22T02:22:46.902Z,97200.73
2019-02-22T02:25:34.981Z,97211.83
2019-02-22T02:28:22.896Z,97203.47
2019-02-22T02:31:10.874Z,97219.39
2019-02-22T02:33:58.747Z,97217.77
2019-02-22T02:36:46.718Z,97219.20
2019-02-22T02:39:34.717Z,97213.77
2019-02-22T02:42:22.995Z,97210.00
2019-02-22T02:45:11.038Z,97212.36
2019-02-22T02:47:59.323Z,97209.31
2019-02-22T02:50:47.345Z,97217.15
2019-02-22T02:53:34.947Z,97214.24
2019-02-22T02:56:22.877Z,97212.64
2019-02-22T02:59:10.936Z,97217.50
2019-02-22T03:01:59.480Z,97215.92
2019-02-22T03:04:47.522Z,97213.82
2019-02-22T03:07:46.398Z,97210.19
2019-02-22T03:10:34.329Z,97200.84
2019-02-22T03:13:22.183Z,97198.14
2019-02-22T03:16:10.274Z,97203.51
2019-02-22T03:18:58.236Z,97188.66
2019-02-22T03:21:46.267Z,97191.45
2019-02-22T03:24:34.116Z,97196.04
2019-02-22T03:27:22.016Z,97191.72
2019-02-22T03:30:10.240Z,97184.61
2019-02-22T03:32:58.171Z,97184.65
2019-02-22T03:35:46.259Z,97187.34
2019-02-22T03:38:33.866Z,97188.20
2019-02-22T03:41:32.459Z,97185.45
2019-02-22T03:44:12.030Z,97186.23
2019-02-22T03:46:59.617Z,97187.84
2019-02-22T03:49:47.731Z,97186.03
2019-02-22T03:52:40.642Z,97183.56
2019-02-22T03:55:28.593Z,97184.91
2019-02-22T03:58:16.561Z,97187.08
2019-02-22T04:01:04.867Z,97180.53
2019-02-22T04:03:52.839Z,97190.81
2019-02-22T04:06:40.695Z,97200.09
2019-02-22T04:09:28.623Z,97194.41
2019-02-22T04:12:16.291Z,97200.56
2019-02-22T04:15:04.596Z,97211.02
2019-02-22T04:17:52.509Z,97205.13
2019-02-22T04:20:40.438Z,97210.56
2019-02-22T04:23:28.760Z,97215.70
2019-02-22T04:26:16.820Z,97212.72
2019-02-22T04:29:05.058Z,97215.45
2019-02-22T04:31:52.914Z,97212.92
2019-02-22T04:34:40.573Z,97217.98
2019-02-22T04:37:28.592Z,97211.53
2019-02-22T04:40:16.159Z,97216.13
2019-02-22T04:43:04.482Z,97207.02
2019-02-22T04:45:52.415Z,97202.05
2019-02-22T04:48:40.222Z,97215.73
2019-02-22T04:51:28.265Z,97206.83
2019-02-22T04:54:16.260Z,97208.65
2019-02-22T04:57:04.181Z,97206.70
2019-02-22T04:59:52.132Z,97206.48
2019-02-22T05:02:40.292Z,97197.81
2019-02-22T05:05:28.120Z,97201.08
2019-02-22T05:08:16.192Z,97203.07
2019-02-22T05:11:04.457Z,97203.02
2019-02-22T05:13:52.635Z,97201.54
2019-02-22T05:16:40.617Z,97207.48
2019-02-22T05:19:28.352Z,97211.87
2019-02-22T05:22:16.247Z,97215.48
2019-02-22T05:25:04.800Z,97214.87
2019-02-22T05:27:52.687Z,97216.53
2019-02-22T05:30:40.350Z,97213.26
2019-02-22T05:33:28.383Z,97221.72
2019-02-22T05:36:16.403Z,97216.84
2019-02-22T05:39:18.003Z,97220.59
2019-02-22T05:41:54.853Z,97216.42
2019-02-22T05:44:43.093Z,97217.20
2019-02-22T05:47:31.073Z,97219.66
2019-02-22T05:50:19.098Z,97219.63
2019-02-22T05:53:07.603Z,97230.47
2019-02-22T05:55:55.532Z,97222.07
2019-02-22T05:58:43.642Z,97223.11
2019-02-22T06:01:31.866Z,97222.36
2019-02-22T06:04:19.652Z,97220.97
2019-02-22T06:07:07.668Z,97230.17
2019-02-22T06:09:55.489Z,97235.37
2019-02-22T06:12:43.585Z,97234.52
2019-02-22T06:15:32.066Z,97241.81
2019-02-22T06:18:22.812Z,97241.77
2019-02-22T06:21:11.223Z,97249.55
2019-02-22T06:23:59.035Z,97252.52
2019-02-22T06:26:46.650Z,97257.39
2019-02-22T06:29:34.295Z,97260.41
2019-02-22T06:32:22.003Z,97263.20
2019-02-22T06:35:10.301Z,97259.39
2019-02-22T06:37:58.396Z,97263.44
2019-02-22T06:40:48.101Z,97270.69
2019-02-22T06:43:35.888Z,97272.63
2019-02-22T06:46:23.944Z,97278.83
2019-02-22T06:49:11.935Z,97283.47
2019-02-22T06:52:03.704Z,97283.70
2019-02-22T06:54:51.278Z,97277.19
2019-02-22T06:57:43.613Z,97279.63
2019-02-22T07:00:31.449Z,97278.27
2019-02-22T07:03:19.557Z,97286.61
2019-02-22T07:06:07.441Z,97296.02
2019-02-22T07:08:55.822Z,97292.23
2019-02-22T07:11:53.774Z,97301.97
2019-02-22T07:14:41.752Z,97305.73
2019-02-22T07:17:30.251Z,97307.62
2019-02-22T07:20:18.044Z,97304.89
2019-02-22T07:23:06.246Z,97314.58
2019-02-22T07:25:54.089Z,97312.86
2019-02-22T07:28:42.671Z,97306.88
2019-02-22T07:31:30.227Z,97314.94
2019-02-22T07:34:18.040Z,97319.54
2019-02-22T07:37:05.579Z,97321.61
2019-02-22T07:39:53.844Z,97329.75
2019-02-22T07:42:41.708Z,97344.89
2019-02-22T07:45:29.682Z,97336.33
2019-02-22T07:48:17.521Z,97344.09
2019-02-22T07:51:05.260Z,97347.11
2019-02-22T07:53:53.160Z,97334.63
2019-02-22T07:56:41.264Z,97334.36
2019-02-22T07:59:29.208Z,97332.66
2019-02-22T08:02:17.667Z,97336.59
2019-02-22T08:05:05.952Z,97331.05
2019-02-22T08:07:54.986Z,97328.76
2019-02-22T08:10:42.622Z,97325.55
2019-02-22T08:13:31.018Z,97322.23
2019-02-22T08:16:18.837Z,97319.42
2019-02-22T08:19:06.917Z,97325.92
2019-02-22T08:21:55.202Z,97330.08
2019-02-22T08:24:43.223Z,97330.64
2019-02-22T08:27:31.365Z,97334.74
2019-02-22T08:30:19.281Z,97342.63
2019-02-22T08:33:07.227Z,97344.66
2019-02-22T08:35:55.481Z,97338.21
2019-02-22T08:38:43.295Z,97349.03
2019-02-22T08:41:31.017Z,97355.42
2019-02-22T08:44:19.022Z,97354.34
2019-02-22T08:47:07.051Z,97350.27
2019-02-22T08:49:55.123Z,97362.66
2019-02-22T08:52:43.077Z,97341.71
2019-02-22T08:55:31.128Z,97337.64
2019-02-22T08:58:19.072Z,97343.25
2019-02-22T09:01:07.017Z,97352.17
2019-02-22T09:03:54.585Z,97371.53
2019-02-22T09:06:42.411Z,97363.37
2019-02-22T09:09:30.775Z,97360.89
2019-02-22T09:12:18.908Z,97360.85
2019-02-22T09:15:07.249Z,97363.94
2019-02-22T09:17:55.405Z,97348.67
2019-02-22T09:20:43.094Z,97350.22
2019-02-22T09:23:31.302Z,97362.59
2019-02-22T09:26:19.565Z,97366.91
2019-02-22T09:29:07.714Z,97358.05
2019-02-22T09:31:56.099Z,97359.87
2019-02-22T09:34:46.187Z,97362.64
2019-02-22T09:37:34.246Z,97358.61
2019-02-22T09:40:22.406Z,97362.17
2019-02-22T09:43:10.001Z,97362.13
2019-02-22T09:45:58.162Z,97366.39
2019-02-22T09:48:46.322Z,97374.47
2019-02-22T09:51:34.447Z,97384.55
2019-02-22T09:54:22.552Z,97379.29
2019-02-22T09:57:10.316Z,97378.35
2019-02-22T09:59:58.695Z,97377.73
2019-02-22T10:02:46.609Z,97380.88
2019-02-22T10:05:34.609Z,97381.02
2019-02-22T10:08:22.711Z,97379.29
2019-02-22T10:11:10.724Z,97384.06
2019-02-22T10:14:06.237Z,97386.40
2019-02-22T10:16:48.364Z,97383.61
2019-02-22T10:19:36.013Z,97381.66
2019-02-22T10:22:23.933Z,97382.59
2019-02-22T10:25:11.848Z,97384.05
2019-02-22T10:27:59.427Z,97385.98
2019-02-22T10:30:47.082Z,97384.12
2019-02-22T10:33:36.866Z,97381.61
2019-02-22T10:36:24.919Z,97384.14
2019-02-22T10:39:13.098Z,97378.78
2019-02-22T10:42:01.054Z,97380.88
2019-02-22T10:44:48.860Z,97386.13
2019-02-22T10:47:36.717Z,97382.25
2019-02-22T10:50:24.698Z,97373.23
2019-02-22T10:53:12.851Z,97367.41
2019-02-22T10:56:00.772Z,97369.23
2019-02-22T10:58:48.921Z,97361.97
2019-02-22T11:01:37.098Z,97357.70
2019-02-22T11:04:25.274Z,97360.52
2019-02-22T11:07:13.147Z,97350.10
2019-02-22T11:10:01.087Z,97354.18
2019-02-22T11:12:48.904Z,97344.61
2019-02-22T11:15:36.777Z,97338.75
2019-02-22T11:18:24.663Z,97329.99
2019-02-22T11:21:12.584Z,97325.09
2019-02-22T11:24:00.941Z,97332.33
2019-02-22T11:26:48.947Z,97334.26
2019-02-22T11:29:36.894Z,97332.37
2019-02-22T11:32:25.078Z,97337.59
2019-02-22T11:35:12.539Z,97331.64
2019-02-22T11:38:00.633Z,97330.62
2019-02-22T11:40:48.759Z,97323.06
2019-02-22T11:43:37.175Z,97315.41
2019-02-22T11:46:25.044Z,97311.53
2019-02-22T11:49:13.156Z,97312.82
2019-02-22T11:52:01.178Z,97310.79
2019-02-22T11:54:49.262Z,97308.75
2019-02-22T11:57:37.427Z,97313.28
2019-02-22T12:00:26.324Z,97312.17
2019-02-22T12:03:24.255Z,97317.02
2019-02-22T12:06:04.029Z,97318.89
2019-02-22T12:08:52.409Z,97323.50
2019-02-22T12:11:40.494Z,97315.35
2019-02-22T12:14:28.650Z,97314.78
2019-02-22T12:22:30.892Z,97303.41
2019-02-22T12:25:18.759Z,97313.12
2019-02-22T12:28:06.440Z,97304.02
2019-02-22T12:30:54.818Z,97305.66
2019-02-22T12:43:39.979Z,97302.65
2019-02-22T12:46:27.839Z,97301.89
2019-02-22T12:49:15.732Z,97308.89
2019-02-22T12:52:03.546Z,97314.55
2019-02-22T12:54:51.894Z,97299.75
2019-02-22T12:57:40.112Z,97310.77
2019-02-22T13:00:28.195Z,97318.56
2019-02-22T13:03:16.480Z,97322.50
2019-02-22T13:06:04.512Z,97322.98
2019-02-22T13:08:53.057Z,97324.33
2019-02-22T13:11:40.895Z,97325.97
2019-02-22T13:14:28.449Z,97327.64
2019-02-22T13:17:16.289Z,97331.30
2019-02-22T13:20:04.858Z,97330.53
2019-02-22T13:22:52.855Z,97341.03
2019-02-22T13:25:40.993Z,97341.53
2019-02-22T13:28:28.956Z,97343.38
2019-02-22T13:31:17.130Z,97344.81
2019-02-22T13:34:05.042Z,97344.98
2019-02-22T13:36:52.912Z,97349.48
2019-02-22T13:39:40.500Z,97346.55
2019-02-22T13:42:28.809Z,97349.31
2019-02-22T13:45:26.163Z,97343.78
2019-02-22T13:48:06.615Z,97343.88
2019-02-22T13:50:54.503Z,97344.98
2019-02-22T13:53:42.381Z,97341.41
2019-02-22T13:56:30.319Z,97335.69
2019-02-22T13:59:18.239Z,97332.15
2019-02-22T14:02:06.146Z,97334.23
2019-02-22T14:04:54.302Z,97333.01
2019-02-22T14:07:50.745Z,97328.47
2019-02-22T14:10:38.962Z,97328.88
2019-02-22T14:13:26.990Z,97331.14
2019-02-22T14:16:15.127Z,97327.37
2019-02-22T14:19:03.088Z,97321.66
2019-02-22T14:21:51.273Z,97330.30
2019-02-22T14:24:39.040Z,97326.00
2019-02-22T14:27:26.839Z,97326.00
2019-02-22T14:30:15.050Z,97323.23
2019-02-22T14:33:02.850Z,97325.38
2019-02-22T14:35:51.101Z,97330.77
2019-02-22T14:38:39.028Z,97333.32
2019-02-22T14:41:27.971Z,97334.85
2019-02-22T14:44:16.310Z,97335.20
2019-02-22T14:47:04.423Z,97331.45
2019-02-22T14:49:52.694Z,97333.45
2019-02-22T14:52:40.863Z,97342.41
2019-02-22T14:55:28.733Z,97340.91
2019-02-22T14:58:17.079Z,97343.13
2019-02-22T15:01:05.211Z,97342.16
2019-02-22T15:03:53.461Z,97345.70
2019-02-22T15:06:40.999Z,97347.81
2019-02-22T15:09:29.123Z,97346.96
2019-02-22T15:12:17.356Z,97348.64
2019-02-22T15:15:06.377Z,97349.94
2019-02-22T15:17:57.142Z,97355.86
2019-02-22T15:20:45.546Z,97361.20
2019-02-22T15:23:33.330Z,97366.96
2019-02-22T15:26:21.498Z,97360.52
2019-02-22T15:29:09.522Z,97365.77
2019-02-22T15:31:57.417Z,97360.32
2019-02-22T15:34:45.187Z,97372.50
2019-02-22T15:37:33.168Z,97369.34
2019-02-22T15:40:21.595Z,97366.22
2019-02-22T15:43:09.972Z,97370.57
2019-02-22T15:45:58.273Z,97373.02
2019-02-22T15:48:47.082Z,97379.29
2019-02-22T15:51:34.772Z,97365.36
2019-02-22T15:54:22.896Z,97366.20
2019-02-22T15:57:10.902Z,97362.22
2019-02-22T15:59:58.967Z,97364.14
2019-02-22T16:02:47.192Z,97366.13
2019-02-22T16:05:37.567Z,97359.08
2019-02-22T16:08:25.127Z,97363.27
2019-02-22T16:11:12.789Z,97362.08
2019-02-22T16:14:01.144Z,97365.42
2019-02-22T16:16:49.065Z,97360.94
2019-02-22T16:19:37.134Z,97362.13
2019-02-22T16:22:25.055Z,97368.14
2019-02-22T16:25:19.507Z,97365.89
2019-02-22T16:28:02.883Z,97370.13
2019-02-22T16:30:51.463Z,97376.02
2019-02-22T16:33:40.005Z,97379.62
2019-02-22T16:36:27.805Z,97385.45
2019-02-22T16:39:17.265Z,97384.49
2019-02-22T16:42:06.031Z,97388.62
2019-02-22T16:44:54.149Z,97378.06
2019-02-22T16:47:41.837Z,97383.23
2019-02-22T16:50:30.849Z,97386.30
2019-02-22T16:53:18.494Z,97385.20
2019-02-22T16:56:06.611Z,97387.95
2019-02-22T16:58:55.317Z,97393.16
2019-02-22T17:01:43.663Z,97388.56
2019-02-22T17:04:32.685Z,97403.17
2019-02-22T17:07:20.921Z,97396.69
2019-02-22T17:10:10.286Z,97403.09
2019-02-22T17:12:58.430Z,97396.02
2019-02-22T17:15:46.377Z,97402.08
2019-02-22T17:18:34.617Z,97406.45
2019-02-22T17:21:22.695Z,97410.52
2019-02-22T17:24:11.266Z,97406.72
2019-02-22T17:26:59.516Z,97411.68
2019-02-22T17:29:47.759Z,97412.31
2019-02-22T17:32:35.624Z,97418.42
2019-02-22T17:35:24.146Z,97419.96
2019-02-22T17:38:12.408Z,97430.50
2019-02-22T17:41:01.446Z,97425.12
2019-02-22T17:43:49.434Z,97424.85
2019-02-22T17:46:39.999Z,97425.48
2019-02-22T17:49:28.005Z,97431.47
2019-02-22T17:52:17.361Z,97428.58
2019-02-22T17:55:07.967Z,97427.82
2019-02-22T17:57:56.007Z,97428.11
2019-02-22T18:00:44.249Z,97423.34
2019-02-22T18:03:33.004Z,97423.05
2019-02-22T18:06:21.087Z,97425.28
2019-02-22T18:09:09.393Z,97429.05
2019-02-22T18:11:57.677Z,97430.70
2019-02-22T18:14:45.600Z,97433.41
2019-02-22T18:17:34.092Z,97423.47
2019-02-22T18:20:22.660Z,97434.86
2019-02-22T18:23:11.025Z,97432.95
2019-02-22T18:25:59.077Z,97430.32
2019-02-22T18:28:47.067Z,97431.67
2019-02-22T18:31:35.122Z,97434.38
2019-02-22T18:34:22.925Z,97431.47
2019-02-22T18:37:10.825Z,97432.03
2019-02-22T18:39:58.790Z,97429.94
2019-02-22T18:42:46.870Z,97430.19
2019-02-22T18:45:35.088Z,97434.55
2019-02-22T18:48:24.368Z,97434.81
2019-02-22T18:51:13.205Z,97435.39
2019-02-22T18:54:02.407Z,97437.58
2019-02-22T18:56:50.688Z,97436.49
2019-02-22T18:59:38.724Z,97429.52
2019-02-22T19:02:26.645Z,97427.89
2019-02-22T19:05:14.267Z,97427.94
2019-02-22T19:08:02.275Z,97433.94
2019-02-22T19:10:50.487Z,97427.21
2019-02-22T19:13:38.574Z,97430.48
2019-02-22T19:16:26.640Z,97426.94
2019-02-22T19:19:14.974Z,97425.02
2019-02-22T19:22:03.113Z,97413.42
2019-02-22T19:24:52.378Z,97409.11
2019-02-22T19:27:40.229Z,97415.02
2019-02-22T19:30:28.050Z,97417.52
2019-02-22T19:33:16.109Z,97419.69
2019-02-22T19:36:03.907Z,97417.52
2019-02-22T19:38:51.890Z,97419.70
2019-02-22T19:41:39.924Z,97423.22
2019-02-22T19:44:28.043Z,97422.69
2019-02-22T19:47:16.004Z,97418.39
2019-02-22T19:50:03.868Z,97419.75
2019-02-22T19:52:51.661Z,97422.95
2019-02-22T19:55:40.129Z,97422.15
2019-02-22T19:58:28.090Z,97427.04
2019-02-22T20:01:23.798Z,97434.04
2019-02-22T20:04:13.681Z,97437.06
2019-02-22T20:07:04.155Z,97434.61
2019-02-22T20:09:56.297Z,97434.60
2019-02-22T20:12:45.137Z,97435.98
2019-02-22T20:15:34.201Z,97445.44
2019-02-22T20:18:22.638Z,97447.05
2019-02-22T20:21:11.072Z,97441.12
2019-02-22T20:23:59.169Z,97435.20
2019-02-22T20:26:47.090Z,97434.11
2019-02-22T20:29:35.448Z,97436.79
2019-02-22T20:32:23.414Z,97436.53
2019-02-22T20:35:14.342Z,97436.27
2019-02-22T20:38:02.412Z,97435.98
2019-02-22T20:40:50.461Z,97434.91
2019-02-22T20:43:38.667Z,97439.48
2019-02-22T20:46:27.009Z,97435.72
2019-02-22T20:49:14.574Z,97436.26
2019-02-22T20:52:02.252Z,97432.22
2019-02-22T20:54:50.434Z,97428.16
2019-02-22T20:57:38.332Z,97431.94
2019-02-22T21:00:26.337Z,97428.95
2019-02-22T21:03:16.263Z,97431.39
2019-02-22T21:06:04.498Z,97433.56
2019-02-22T21:08:52.699Z,97426.01
2019-02-22T21:11:40.573Z,97429.51
2019-02-22T21:14:30.575Z,97426.01
2019-02-22T21:17:18.651Z,97425.45
2019-02-22T21:20:07.884Z,97429.22
2019-02-22T21:22:55.921Z,97424.63
2019-02-22T21:25:44.382Z,97429.74
2019-02-22T21:28:32.674Z,97428.66
2019-02-22T21:31:20.935Z,97435.42
2019-02-22T21:34:08.745Z,97430.00
2019-02-22T21:36:57.274Z,97431.58
2019-02-22T21:39:45.747Z,97433.80
2019-02-22T21:42:33.993Z,97431.08
2019-02-22T21:45:22.159Z,97425.38
2019-02-22T21:48:10.204Z,97431.83
2019-02-22T21:50:58.260Z,97432.37
2019-02-22T21:53:46.505Z,97434.17
2019-02-22T21:56:34.365Z,97431.75
2019-02-22T21:59:22.156Z,97435.56
2019-02-22T22:02:10.304Z,97436.55
2019-02-22T22:04:57.926Z,97433.63
2019-02-22T22:07:45.911Z,97437.98
2019-02-22T22:10:33.858Z,97437.11
2019-02-22T22:13:22.193Z,97428.78
2019-02-22T22:16:09.837Z,97429.30
2019-02-22T22:18:57.636Z,97432.83
2019-02-22T22:21:45.746Z,97434.13
2019-02-22T22:24:33.800Z,97433.86
2019-02-22T22:27:21.570Z,97437.34
2019-02-22T22:30:10.486Z,97430.37
2019-02-22T22:32:58.542Z,97431.72
2019-02-22T22:35:46.519Z,97425.48
2019-02-22T22:38:34.487Z,97417.60
2019-02-22T22:41:22.445Z,97422.98
2019-02-22T22:44:10.293Z,97425.13
2019-02-22T22:46:58.526Z,97431.53
2019-02-22T22:49:46.416Z,97436.36
2019-02-22T22:52:34.536Z,97421.88
2019-02-22T22:55:22.424Z,97433.44
2019-02-22T22:58:10.251Z,97428.84
2019-02-22T23:01:08.898Z,97438.81
2019-02-22T23:03:57.209Z,97433.10
2019-02-22T23:06:45.191Z,97441.34
2019-02-22T23:09:33.140Z,97440.73
2019-02-22T23:12:21.125Z,97437.04
2019-02-22T23:15:09.063Z,97442.14
2019-02-22T23:17:57.134Z,97429.74
2019-02-22T23:20:45.011Z,97433.50
2019-02-22T23:23:32.958Z,97431.17
2019-02-22T23:26:20.999Z,97432.38
2019-02-22T23:29:09.119Z,97437.34
2019-02-22T23:31:57.102Z,97436.29
2019-02-22T23:34:45.359Z,97442.98
2019-02-22T23:37:33.140Z,97440.20
2019-02-22T23:40:21.787Z,97439.23
2019-02-22T23:43:09.980Z,97445.71
2019-02-22T23:45:57.924Z,97442.42
2019-02-22T23:48:46.149Z,97448.59
2019-02-22T23:51:34.176Z,97447.66
2019-02-22T23:54:22.363Z,97447.84
2019-02-22T23:57:10.694Z,97445.75
2019-02-22T23:59:58.300Z,97450.35
